sensor_id;sensor_type;location;lat;lon;timestamp;temperature;humidity
72114;SHT31;59989;46.220;19.888;2022-11-20T00:00:55;3.42;96.76
72114;SHT31;59989;46.220;19.888;2022-11-20T00:03:58;3.32;96.71
72114;SHT31;59989;46.220;19.888;2022-11-20T00:07:00;3.30;96.88
72114;SHT31;59989;46.220;19.888;2022-11-20T00:10:03;3.33;97.00
72114;SHT31;59989;46.220;19.888;2022-11-20T00:13:06;3.35;96.98
72114;SHT31;59989;46.220;19.888;2022-11-20T00:16:11;3.29;97.01
72114;SHT31;59989;46.220;19.888;2022-11-20T00:19:14;3.35;97.09
72114;SHT31;59989;46.220;19.888;2022-11-20T00:22:17;3.35;97.17
72114;SHT31;59989;46.220;19.888;2022-11-20T00:25:19;3.33;97.06
72114;SHT31;59989;46.220;19.888;2022-11-20T00:28:22;3.32;97.06
72114;SHT31;59989;46.220;19.888;2022-11-20T00:31:25;3.29;97.00
72114;SHT31;59989;46.220;19.888;2022-11-20T00:34:27;3.30;97.03
72114;SHT31;59989;46.220;19.888;2022-11-20T00:37:30;3.29;96.99
72114;SHT31;59989;46.220;19.888;2022-11-20T00:40:32;3.26;96.93
72114;SHT31;59989;46.220;19.888;2022-11-20T00:43:34;3.29;96.92
72114;SHT31;59989;46.220;19.888;2022-11-20T00:46:37;3.30;96.96
72114;SHT31;59989;46.220;19.888;2022-11-20T00:49:39;3.28;96.96
72114;SHT31;59989;46.220;19.888;2022-11-20T00:52:42;3.25;97.00
72114;SHT31;59989;46.220;19.888;2022-11-20T00:55:53;3.23;97.05
72114;SHT31;59989;46.220;19.888;2022-11-20T00:58:59;3.29;97.06
72114;SHT31;59989;46.220;19.888;2022-11-20T01:02:02;3.29;97.10
72114;SHT31;59989;46.220;19.888;2022-11-20T01:05:04;3.26;97.12
72114;SHT31;59989;46.220;19.888;2022-11-20T01:08:07;3.23;97.08
72114;SHT31;59989;46.220;19.888;2022-11-20T01:11:12;3.26;97.16
72114;SHT31;59989;46.220;19.888;2022-11-20T01:14:18;3.25;97.14
72114;SHT31;59989;46.220;19.888;2022-11-20T01:17:22;3.26;97.13
72114;SHT31;59989;46.220;19.888;2022-11-20T01:20:24;3.30;97.16
72114;SHT31;59989;46.220;19.888;2022-11-20T01:23:30;3.33;97.21
72114;SHT31;59989;46.220;19.888;2022-11-20T01:26:35;3.36;97.21
72114;SHT31;59989;46.220;19.888;2022-11-20T01:29:38;3.36;97.15
72114;SHT31;59989;46.220;19.888;2022-11-20T01:32:41;3.35;97.09
72114;SHT31;59989;46.220;19.888;2022-11-20T01:35:43;3.35;97.08
72114;SHT31;59989;46.220;19.888;2022-11-20T01:38:46;3.36;97.07
72114;SHT31;59989;46.220;19.888;2022-11-20T01:41:50;3.29;97.00
72114;SHT31;59989;46.220;19.888;2022-11-20T01:49:08;3.36;97.15
72114;SHT31;59989;46.220;19.888;2022-11-20T01:52:23;3.36;97.16
72114;SHT31;59989;46.220;19.888;2022-11-20T01:55:31;3.33;97.14
72114;SHT31;59989;46.220;19.888;2022-11-20T01:58:38;3.33;97.08
72114;SHT31;59989;46.220;19.888;2022-11-20T02:01:42;3.29;97.07
72114;SHT31;59989;46.220;19.888;2022-11-20T02:04:44;3.29;97.05
72114;SHT31;59989;46.220;19.888;2022-11-20T02:07:48;3.26;97.08
72114;SHT31;59989;46.220;19.888;2022-11-20T02:10:50;3.29;97.20
72114;SHT31;59989;46.220;19.888;2022-11-20T02:13:53;3.25;97.14
72114;SHT31;59989;46.220;19.888;2022-11-20T02:16:57;3.23;97.24
72114;SHT31;59989;46.220;19.888;2022-11-20T02:20:00;3.18;97.04
72114;SHT31;59989;46.220;19.888;2022-11-20T02:23:05;3.13;96.98
72114;SHT31;59989;46.220;19.888;2022-11-20T02:26:12;3.15;97.01
72114;SHT31;59989;46.220;19.888;2022-11-20T02:29:19;3.09;96.99
72114;SHT31;59989;46.220;19.888;2022-11-20T02:32:29;3.15;97.01
72114;SHT31;59989;46.220;19.888;2022-11-20T02:38:34;3.02;97.03
72114;SHT31;59989;46.220;19.888;2022-11-20T02:41:37;2.98;96.90
72114;SHT31;59989;46.220;19.888;2022-11-20T02:44:40;2.92;96.92
72114;SHT31;59989;46.220;19.888;2022-11-20T02:47:42;2.91;96.94
72114;SHT31;59989;46.220;19.888;2022-11-20T02:50:45;2.88;96.98
72114;SHT31;59989;46.220;19.888;2022-11-20T02:53:47;2.91;97.06
72114;SHT31;59989;46.220;19.888;2022-11-20T02:56:51;2.88;97.02
72114;SHT31;59989;46.220;19.888;2022-11-20T02:59:54;2.87;97.07
72114;SHT31;59989;46.220;19.888;2022-11-20T03:02:58;2.81;96.98
72114;SHT31;59989;46.220;19.888;2022-11-20T03:06:00;2.83;96.90
72114;SHT31;59989;46.220;19.888;2022-11-20T03:09:03;2.83;96.93
72114;SHT31;59989;46.220;19.888;2022-11-20T03:12:06;2.83;96.97
72114;SHT31;59989;46.220;19.888;2022-11-20T03:15:09;2.78;96.90
72114;SHT31;59989;46.220;19.888;2022-11-20T03:18:11;2.77;96.93
72114;SHT31;59989;46.220;19.888;2022-11-20T03:21:16;2.67;96.78
72114;SHT31;59989;46.220;19.888;2022-11-20T03:24:18;2.68;96.83
72114;SHT31;59989;46.220;19.888;2022-11-20T03:27:21;2.67;96.92
72114;SHT31;59989;46.220;19.888;2022-11-20T03:30:23;2.67;96.93
72114;SHT31;59989;46.220;19.888;2022-11-20T03:33:31;2.62;96.99
72114;SHT31;59989;46.220;19.888;2022-11-20T03:36:34;2.57;96.91
72114;SHT31;59989;46.220;19.888;2022-11-20T03:39:37;2.58;96.98
72114;SHT31;59989;46.220;19.888;2022-11-20T03:42:39;2.57;96.98
72114;SHT31;59989;46.220;19.888;2022-11-20T03:45:47;2.56;97.00
72114;SHT31;59989;46.220;19.888;2022-11-20T03:48:50;2.54;96.95
72114;SHT31;59989;46.220;19.888;2022-11-20T03:51:53;2.57;97.00
72114;SHT31;59989;46.220;19.888;2022-11-20T03:54:56;2.56;96.98
72114;SHT31;59989;46.220;19.888;2022-11-20T03:57:58;2.58;97.05
72114;SHT31;59989;46.220;19.888;2022-11-20T04:04:12;2.60;97.07
72114;SHT31;59989;46.220;19.888;2022-11-20T04:07:14;2.65;97.14
72114;SHT31;59989;46.220;19.888;2022-11-20T04:10:18;2.57;97.03
72114;SHT31;59989;46.220;19.888;2022-11-20T04:13:20;2.61;97.12
72114;SHT31;59989;46.220;19.888;2022-11-20T04:16:24;2.62;97.07
72114;SHT31;59989;46.220;19.888;2022-11-20T04:19:27;2.58;97.00
72114;SHT31;59989;46.220;19.888;2022-11-20T04:22:29;2.61;97.13
72114;SHT31;59989;46.220;19.888;2022-11-20T04:25:32;2.60;97.25
72114;SHT31;59989;46.220;19.888;2022-11-20T04:28:35;2.57;97.04
72114;SHT31;59989;46.220;19.888;2022-11-20T04:31:49;2.62;97.16
72114;SHT31;59989;46.220;19.888;2022-11-20T04:34:51;2.60;97.00
72114;SHT31;59989;46.220;19.888;2022-11-20T04:37:53;2.57;96.90
72114;SHT31;59989;46.220;19.888;2022-11-20T04:40:58;2.61;96.93
72114;SHT31;59989;46.220;19.888;2022-11-20T04:44:02;2.62;96.90
72114;SHT31;59989;46.220;19.888;2022-11-20T04:47:05;2.61;96.83
72114;SHT31;59989;46.220;19.888;2022-11-20T04:50:08;2.61;96.80
72114;SHT31;59989;46.220;19.888;2022-11-20T04:53:11;2.62;97.00
72114;SHT31;59989;46.220;19.888;2022-11-20T04:56:13;2.67;96.95
72114;SHT31;59989;46.220;19.888;2022-11-20T04:59:16;2.67;96.88
72114;SHT31;59989;46.220;19.888;2022-11-20T05:02:18;2.65;96.89
72114;SHT31;59989;46.220;19.888;2022-11-20T05:05:21;2.61;96.67
72114;SHT31;59989;46.220;19.888;2022-11-20T05:08:23;2.60;96.72
72114;SHT31;59989;46.220;19.888;2022-11-20T05:11:26;2.60;96.71
72114;SHT31;59989;46.220;19.888;2022-11-20T05:14:31;2.58;96.85
72114;SHT31;59989;46.220;19.888;2022-11-20T05:17:33;2.56;96.85
72114;SHT31;59989;46.220;19.888;2022-11-20T05:20:36;2.51;96.78
72114;SHT31;59989;46.220;19.888;2022-11-20T05:23:39;2.51;96.94
72114;SHT31;59989;46.220;19.888;2022-11-20T05:26:42;2.53;96.85
72114;SHT31;59989;46.220;19.888;2022-11-20T05:29:44;2.50;96.81
72114;SHT31;59989;46.220;19.888;2022-11-20T05:32:47;2.53;96.72
72114;SHT31;59989;46.220;19.888;2022-11-20T05:35:49;2.49;96.72
72114;SHT31;59989;46.220;19.888;2022-11-20T05:38:52;2.53;96.69
72114;SHT31;59989;46.220;19.888;2022-11-20T05:42:02;2.56;96.80
72114;SHT31;59989;46.220;19.888;2022-11-20T05:45:24;2.54;96.67
72114;SHT31;59989;46.220;19.888;2022-11-20T05:48:26;2.56;96.58
72114;SHT31;59989;46.220;19.888;2022-11-20T05:51:29;2.56;96.69
72114;SHT31;59989;46.220;19.888;2022-11-20T05:54:31;2.61;96.62
72114;SHT31;59989;46.220;19.888;2022-11-20T05:57:34;2.61;96.53
72114;SHT31;59989;46.220;19.888;2022-11-20T06:00:36;2.61;96.70
72114;SHT31;59989;46.220;19.888;2022-11-20T06:03:41;2.64;96.55
72114;SHT31;59989;46.220;19.888;2022-11-20T06:06:45;2.68;96.55
72114;SHT31;59989;46.220;19.888;2022-11-20T06:09:47;2.70;96.36
72114;SHT31;59989;46.220;19.888;2022-11-20T06:12:50;2.67;96.45
72114;SHT31;59989;46.220;19.888;2022-11-20T06:15:53;2.68;96.30
72114;SHT31;59989;46.220;19.888;2022-11-20T06:18:57;2.73;96.23
72114;SHT31;59989;46.220;19.888;2022-11-20T06:21:59;2.76;96.32
72114;SHT31;59989;46.220;19.888;2022-11-20T06:25:02;2.78;96.25
72114;SHT31;59989;46.220;19.888;2022-11-20T06:28:05;2.73;96.00
72114;SHT31;59989;46.220;19.888;2022-11-20T06:31:10;2.73;96.12
72114;SHT31;59989;46.220;19.888;2022-11-20T06:34:13;2.71;96.08
72114;SHT31;59989;46.220;19.888;2022-11-20T06:37:15;2.68;96.06
72114;SHT31;59989;46.220;19.888;2022-11-20T06:40:18;2.70;96.22
72114;SHT31;59989;46.220;19.888;2022-11-20T06:43:21;2.70;96.06
72114;SHT31;59989;46.220;19.888;2022-11-20T06:46:25;2.74;95.95
72114;SHT31;59989;46.220;19.888;2022-11-20T06:49:29;2.76;95.99
72114;SHT31;59989;46.220;19.888;2022-11-20T06:52:32;2.78;96.14
72114;SHT31;59989;46.220;19.888;2022-11-20T06:55:47;2.81;96.19
72114;SHT31;59989;46.220;19.888;2022-11-20T06:58:50;2.80;95.89
72114;SHT31;59989;46.220;19.888;2022-11-20T07:01:52;2.81;96.10
72114;SHT31;59989;46.220;19.888;2022-11-20T07:04:56;2.78;96.04
72114;SHT31;59989;46.220;19.888;2022-11-20T07:07:58;2.77;95.94
72114;SHT31;59989;46.220;19.888;2022-11-20T07:11:05;2.80;95.86
72114;SHT31;59989;46.220;19.888;2022-11-20T07:14:09;2.85;95.75
72114;SHT31;59989;46.220;19.888;2022-11-20T07:17:12;2.90;95.62
72114;SHT31;59989;46.220;19.888;2022-11-20T07:20:15;2.94;95.54
72114;SHT31;59989;46.220;19.888;2022-11-20T07:23:18;2.91;95.42
72114;SHT31;59989;46.220;19.888;2022-11-20T07:26:21;2.84;95.19
72114;SHT31;59989;46.220;19.888;2022-11-20T07:29:24;2.90;95.41
72114;SHT31;59989;46.220;19.888;2022-11-20T07:32:27;2.90;95.48
72114;SHT31;59989;46.220;19.888;2022-11-20T07:35:29;2.91;95.37
72114;SHT31;59989;46.220;19.888;2022-11-20T07:38:32;2.95;95.40
72114;SHT31;59989;46.220;19.888;2022-11-20T07:41:35;2.95;95.25
72114;SHT31;59989;46.220;19.888;2022-11-20T07:44:38;2.94;95.18
72114;SHT31;59989;46.220;19.888;2022-11-20T07:47:41;2.95;95.17
72114;SHT31;59989;46.220;19.888;2022-11-20T07:50:43;2.94;95.02
72114;SHT31;59989;46.220;19.888;2022-11-20T07:53:46;2.98;95.27
72114;SHT31;59989;46.220;19.888;2022-11-20T07:56:49;2.98;95.18
72114;SHT31;59989;46.220;19.888;2022-11-20T07:59:51;3.08;95.32
72114;SHT31;59989;46.220;19.888;2022-11-20T08:02:54;3.05;94.89
72114;SHT31;59989;46.220;19.888;2022-11-20T08:06:00;3.15;95.10
72114;SHT31;59989;46.220;19.888;2022-11-20T08:09:03;3.19;94.72
72114;SHT31;59989;46.220;19.888;2022-11-20T08:12:06;3.28;94.61
72114;SHT31;59989;46.220;19.888;2022-11-20T08:15:27;3.32;94.44
72114;SHT31;59989;46.220;19.888;2022-11-20T08:18:29;3.40;94.31
72114;SHT31;59989;46.220;19.888;2022-11-20T08:21:34;3.38;94.32
72114;SHT31;59989;46.220;19.888;2022-11-20T08:24:39;3.40;94.29
72114;SHT31;59989;46.220;19.888;2022-11-20T08:27:42;3.44;94.18
72114;SHT31;59989;46.220;19.888;2022-11-20T08:30:44;3.50;94.34
72114;SHT31;59989;46.220;19.888;2022-11-20T08:33:48;3.59;94.06
72114;SHT31;59989;46.220;19.888;2022-11-20T08:36:50;3.67;94.06
72114;SHT31;59989;46.220;19.888;2022-11-20T08:39:53;3.73;93.85
72114;SHT31;59989;46.220;19.888;2022-11-20T08:42:59;3.83;93.67
72114;SHT31;59989;46.220;19.888;2022-11-20T08:46:04;3.90;93.28
72114;SHT31;59989;46.220;19.888;2022-11-20T08:49:10;3.94;92.79
72114;SHT31;59989;46.220;19.888;2022-11-20T08:52:13;3.93;92.90
72114;SHT31;59989;46.220;19.888;2022-11-20T08:55:16;4.07;92.61
72114;SHT31;59989;46.220;19.888;2022-11-20T08:58:20;4.14;92.26
72114;SHT31;59989;46.220;19.888;2022-11-20T09:01:25;4.17;92.47
72114;SHT31;59989;46.220;19.888;2022-11-20T09:04:29;4.11;91.61
72114;SHT31;59989;46.220;19.888;2022-11-20T09:07:32;4.17;92.32
72114;SHT31;59989;46.220;19.888;2022-11-20T09:10:38;4.14;92.26
72114;SHT31;59989;46.220;19.888;2022-11-20T09:13:42;4.11;91.89
72114;SHT31;59989;46.220;19.888;2022-11-20T09:16:45;4.07;92.03
72114;SHT31;59989;46.220;19.888;2022-11-20T09:19:50;4.09;92.32
72114;SHT31;59989;46.220;19.888;2022-11-20T09:22:53;4.14;92.42
72114;SHT31;59989;46.220;19.888;2022-11-20T09:25:56;4.14;92.13
72114;SHT31;59989;46.220;19.888;2022-11-20T09:29:02;4.12;91.89
72114;SHT31;59989;46.220;19.888;2022-11-20T09:32:06;4.19;91.62
72114;SHT31;59989;46.220;19.888;2022-11-20T09:35:08;4.39;91.64
72114;SHT31;59989;46.220;19.888;2022-11-20T09:38:11;4.59;90.67
72114;SHT31;59989;46.220;19.888;2022-11-20T09:41:28;4.76;89.99
72114;SHT31;59989;46.220;19.888;2022-11-20T09:52:09;4.72;90.35
72114;SHT31;59989;46.220;19.888;2022-11-20T09:55:19;4.91;90.19
72114;SHT31;59989;46.220;19.888;2022-11-20T09:58:42;4.87;89.45
72114;SHT31;59989;46.220;19.888;2022-11-20T10:01:46;4.84;89.94
72114;SHT31;59989;46.220;19.888;2022-11-20T10:05:18;4.91;89.38
72114;SHT31;59989;46.220;19.888;2022-11-20T10:08:41;5.24;88.99
72114;SHT31;59989;46.220;19.888;2022-11-20T10:23:15;6.64;85.30
72114;SHT31;59989;46.220;19.888;2022-11-20T10:30:00;6.88;84.32
72114;SHT31;59989;46.220;19.888;2022-11-20T10:33:17;6.78;84.48
72114;SHT31;59989;46.220;19.888;2022-11-20T10:36:28;6.75;84.45
72114;SHT31;59989;46.220;19.888;2022-11-20T10:42:51;6.34;85.81
72114;SHT31;59989;46.220;19.888;2022-11-20T10:46:01;6.35;85.92
72114;SHT31;59989;46.220;19.888;2022-11-20T10:49:13;6.45;86.66
72114;SHT31;59989;46.220;19.888;2022-11-20T10:55:46;6.28;85.94
72114;SHT31;59989;46.220;19.888;2022-11-20T11:02:52;6.24;86.09
72114;SHT31;59989;46.220;19.888;2022-11-20T11:09:34;6.31;86.99
72114;SHT31;59989;46.220;19.888;2022-11-20T11:12:43;6.35;86.53
72114;SHT31;59989;46.220;19.888;2022-11-20T11:15:49;6.53;86.31
72114;SHT31;59989;46.220;19.888;2022-11-20T11:19:16;7.48;83.42
72114;SHT31;59989;46.220;19.888;2022-11-20T11:22:20;7.40;83.68
72114;SHT31;59989;46.220;19.888;2022-11-20T11:25:30;7.26;83.25
72114;SHT31;59989;46.220;19.888;2022-11-20T11:28:36;7.67;82.06
72114;SHT31;59989;46.220;19.888;2022-11-20T11:31:42;7.61;82.68
72114;SHT31;59989;46.220;19.888;2022-11-20T11:34:44;7.38;82.89
72114;SHT31;59989;46.220;19.888;2022-11-20T11:37:48;7.34;82.90
72114;SHT31;59989;46.220;19.888;2022-11-20T11:40:53;7.32;83.33
72114;SHT31;59989;46.220;19.888;2022-11-20T11:44:19;6.86;84.22
72114;SHT31;59989;46.220;19.888;2022-11-20T11:47:48;6.90;85.16
72114;SHT31;59989;46.220;19.888;2022-11-20T11:50:54;6.97;84.81
72114;SHT31;59989;46.220;19.888;2022-11-20T11:53:58;6.93;85.12
72114;SHT31;59989;46.220;19.888;2022-11-20T11:57:07;6.99;85.06
72114;SHT31;59989;46.220;19.888;2022-11-20T12:00:15;6.86;84.75
72114;SHT31;59989;46.220;19.888;2022-11-20T12:03:39;6.92;85.72
72114;SHT31;59989;46.220;19.888;2022-11-20T12:06:47;6.90;85.63
72114;SHT31;59989;46.220;19.888;2022-11-20T12:09:54;6.96;85.87
72114;SHT31;59989;46.220;19.888;2022-11-20T12:13:03;6.82;85.70
72114;SHT31;59989;46.220;19.888;2022-11-20T12:16:13;6.92;86.12
72114;SHT31;59989;46.220;19.888;2022-11-20T12:19:17;6.83;85.10
72114;SHT31;59989;46.220;19.888;2022-11-20T12:26:00;6.73;85.26
72114;SHT31;59989;46.220;19.888;2022-11-20T12:39:13;6.86;85.37
72114;SHT31;59989;46.220;19.888;2022-11-20T12:42:47;6.78;85.31
72114;SHT31;59989;46.220;19.888;2022-11-20T12:46:42;6.83;86.04
72114;SHT31;59989;46.220;19.888;2022-11-20T12:53:36;6.73;85.95
72114;SHT31;59989;46.220;19.888;2022-11-20T13:00:16;6.85;86.13
72114;SHT31;59989;46.220;19.888;2022-11-20T13:07:01;6.83;86.12
72114;SHT31;59989;46.220;19.888;2022-11-20T13:10:06;6.89;86.20
72114;SHT31;59989;46.220;19.888;2022-11-20T13:19:54;6.88;86.01
72114;SHT31;59989;46.220;19.888;2022-11-20T13:22:58;6.99;86.27
72114;SHT31;59989;46.220;19.888;2022-11-20T13:26:04;6.96;86.01
72114;SHT31;59989;46.220;19.888;2022-11-20T13:29:19;6.97;86.09
72114;SHT31;59989;46.220;19.888;2022-11-20T13:32:23;6.92;86.03
72114;SHT31;59989;46.220;19.888;2022-11-20T13:35:37;6.90;86.24
72114;SHT31;59989;46.220;19.888;2022-11-20T13:38:46;6.89;85.43
72114;SHT31;59989;46.220;19.888;2022-11-20T13:41:56;6.85;85.63
72114;SHT31;59989;46.220;19.888;2022-11-20T13:45:02;6.86;85.83
72114;SHT31;59989;46.220;19.888;2022-11-20T13:48:21;6.88;85.56
72114;SHT31;59989;46.220;19.888;2022-11-20T13:55:02;6.86;86.34
72114;SHT31;59989;46.220;19.888;2022-11-20T14:01:37;6.80;87.28
72114;SHT31;59989;46.220;19.888;2022-11-20T14:04:44;6.75;86.49
72114;SHT31;59989;46.220;19.888;2022-11-20T14:07:50;6.71;86.78
72114;SHT31;59989;46.220;19.888;2022-11-20T14:11:05;6.72;87.58
72114;SHT31;59989;46.220;19.888;2022-11-20T14:14:17;6.68;87.08
72114;SHT31;59989;46.220;19.888;2022-11-20T14:17:34;6.67;87.52
72114;SHT31;59989;46.220;19.888;2022-11-20T14:20:41;6.62;87.80
72114;SHT31;59989;46.220;19.888;2022-11-20T14:23:45;6.61;87.99
72114;SHT31;59989;46.220;19.888;2022-11-20T14:26:48;6.53;87.07
72114;SHT31;59989;46.220;19.888;2022-11-20T14:29:52;6.52;87.31
72114;SHT31;59989;46.220;19.888;2022-11-20T14:33:03;6.49;87.19
72114;SHT31;59989;46.220;19.888;2022-11-20T14:36:17;6.46;87.51
72114;SHT31;59989;46.220;19.888;2022-11-20T14:39:30;6.48;87.83
72114;SHT31;59989;46.220;19.888;2022-11-20T14:42:35;6.48;87.65
72114;SHT31;59989;46.220;19.888;2022-11-20T14:45:40;6.48;88.15
72114;SHT31;59989;46.220;19.888;2022-11-20T14:48:51;6.45;88.10
72114;SHT31;59989;46.220;19.888;2022-11-20T14:52:02;6.42;88.49
72114;SHT31;59989;46.220;19.888;2022-11-20T14:55:07;6.41;88.59
72114;SHT31;59989;46.220;19.888;2022-11-20T14:58:29;6.38;88.67
72114;SHT31;59989;46.220;19.888;2022-11-20T15:01:33;6.35;88.52
72114;SHT31;59989;46.220;19.888;2022-11-20T15:04:50;6.31;88.77
72114;SHT31;59989;46.220;19.888;2022-11-20T15:08:07;6.30;88.90
72114;SHT31;59989;46.220;19.888;2022-11-20T15:11:18;6.28;88.92
72114;SHT31;59989;46.220;19.888;2022-11-20T15:14:22;6.28;89.08
72114;SHT31;59989;46.220;19.888;2022-11-20T15:17:25;6.28;89.13
72114;SHT31;59989;46.220;19.888;2022-11-20T15:20:31;6.25;88.78
72114;SHT31;59989;46.220;19.888;2022-11-20T15:23:35;6.25;88.50
72114;SHT31;59989;46.220;19.888;2022-11-20T15:26:39;6.22;88.61
72114;SHT31;59989;46.220;19.888;2022-11-20T15:29:46;6.21;88.50
72114;SHT31;59989;46.220;19.888;2022-11-20T15:32:49;6.20;88.70
72114;SHT31;59989;46.220;19.888;2022-11-20T15:35:54;6.17;88.82
72114;SHT31;59989;46.220;19.888;2022-11-20T15:39:06;6.16;88.88
72114;SHT31;59989;46.220;19.888;2022-11-20T15:43:03;6.13;88.99
72114;SHT31;59989;46.220;19.888;2022-11-20T15:46:42;6.11;89.01
72114;SHT31;59989;46.220;19.888;2022-11-20T16:16:54;5.79;90.55
72114;SHT31;59989;46.220;19.888;2022-11-20T16:20:39;5.74;90.75
72114;SHT31;59989;46.220;19.888;2022-11-20T16:23:44;5.73;90.68
72114;SHT31;59989;46.220;19.888;2022-11-20T16:26:47;5.74;90.94
72114;SHT31;59989;46.220;19.888;2022-11-20T16:29:50;5.74;90.83
72114;SHT31;59989;46.220;19.888;2022-11-20T16:32:54;5.72;90.96
72114;SHT31;59989;46.220;19.888;2022-11-20T16:36:09;5.72;90.93
72114;SHT31;59989;46.220;19.888;2022-11-20T16:39:17;5.66;90.80
72114;SHT31;59989;46.220;19.888;2022-11-20T16:42:27;5.67;90.80
72114;SHT31;59989;46.220;19.888;2022-11-20T16:45:31;5.67;90.98
72114;SHT31;59989;46.220;19.888;2022-11-20T16:48:37;5.66;91.03
72114;SHT31;59989;46.220;19.888;2022-11-20T16:51:41;5.67;91.56
72114;SHT31;59989;46.220;19.888;2022-11-20T16:54:46;5.63;91.91
72114;SHT31;59989;46.220;19.888;2022-11-20T16:57:49;5.65;91.88
72114;SHT31;59989;46.220;19.888;2022-11-20T17:00:52;5.65;91.38
72114;SHT31;59989;46.220;19.888;2022-11-20T17:03:59;5.65;91.15
72114;SHT31;59989;46.220;19.888;2022-11-20T17:07:03;5.65;91.56
72114;SHT31;59989;46.220;19.888;2022-11-20T17:10:10;5.60;91.39
72114;SHT31;59989;46.220;19.888;2022-11-20T17:13:16;5.60;91.52
72114;SHT31;59989;46.220;19.888;2022-11-20T17:16:22;5.58;91.56
72114;SHT31;59989;46.220;19.888;2022-11-20T17:19:25;5.58;91.59
72114;SHT31;59989;46.220;19.888;2022-11-20T17:22:31;5.60;91.46
72114;SHT31;59989;46.220;19.888;2022-11-20T17:25:38;5.53;91.66
72114;SHT31;59989;46.220;19.888;2022-11-20T17:28:41;5.53;91.67
72114;SHT31;59989;46.220;19.888;2022-11-20T17:31:44;5.53;91.34
72114;SHT31;59989;46.220;19.888;2022-11-20T17:34:48;5.53;91.60
72114;SHT31;59989;46.220;19.888;2022-11-20T17:37:52;5.52;91.65
72114;SHT31;59989;46.220;19.888;2022-11-20T17:41:07;5.53;91.61
72114;SHT31;59989;46.220;19.888;2022-11-20T17:44:12;5.51;91.51
72114;SHT31;59989;46.220;19.888;2022-11-20T17:47:15;5.49;91.28
72114;SHT31;59989;46.220;19.888;2022-11-20T17:50:21;5.53;91.43
72114;SHT31;59989;46.220;19.888;2022-11-20T17:53:26;5.49;91.69
72114;SHT31;59989;46.220;19.888;2022-11-20T17:56:31;5.46;91.64
72114;SHT31;59989;46.220;19.888;2022-11-20T17:59:53;5.49;91.49
72114;SHT31;59989;46.220;19.888;2022-11-20T18:02:56;5.46;91.56
72114;SHT31;59989;46.220;19.888;2022-11-20T18:06:20;5.46;91.39
72114;SHT31;59989;46.220;19.888;2022-11-20T18:09:23;5.44;91.47
72114;SHT31;59989;46.220;19.888;2022-11-20T18:12:28;5.41;91.68
72114;SHT31;59989;46.220;19.888;2022-11-20T18:15:31;5.41;91.68
72114;SHT31;59989;46.220;19.888;2022-11-20T18:18:36;5.36;91.61
72114;SHT31;59989;46.220;19.888;2022-11-20T18:21:39;5.41;91.83
72114;SHT31;59989;46.220;19.888;2022-11-20T18:24:44;5.35;91.79
72114;SHT31;59989;46.220;19.888;2022-11-20T18:27:48;5.36;91.79
72114;SHT31;59989;46.220;19.888;2022-11-20T18:30:51;5.30;91.93
72114;SHT31;59989;46.220;19.888;2022-11-20T18:33:56;5.32;92.01
72114;SHT31;59989;46.220;19.888;2022-11-20T18:36:58;5.30;92.21
72114;SHT31;59989;46.220;19.888;2022-11-20T18:40:03;5.30;92.06
72114;SHT31;59989;46.220;19.888;2022-11-20T18:43:09;5.30;92.12
72114;SHT31;59989;46.220;19.888;2022-11-20T18:46:32;5.28;92.08
72114;SHT31;59989;46.220;19.888;2022-11-20T18:49:36;5.27;92.03
72114;SHT31;59989;46.220;19.888;2022-11-20T18:52:41;5.30;92.12
72114;SHT31;59989;46.220;19.888;2022-11-20T18:55:47;5.27;92.28
72114;SHT31;59989;46.220;19.888;2022-11-20T18:58:53;5.27;92.19
72114;SHT31;59989;46.220;19.888;2022-11-20T19:02:09;5.28;92.10
72114;SHT31;59989;46.220;19.888;2022-11-20T19:05:14;5.27;92.15
72114;SHT31;59989;46.220;19.888;2022-11-20T19:08:17;5.25;92.24
72114;SHT31;59989;46.220;19.888;2022-11-20T19:11:21;5.24;92.14
72114;SHT31;59989;46.220;19.888;2022-11-20T19:14:24;5.27;92.15
72114;SHT31;59989;46.220;19.888;2022-11-20T19:17:27;5.25;92.13
72114;SHT31;59989;46.220;19.888;2022-11-20T19:20:33;5.27;92.08
72114;SHT31;59989;46.220;19.888;2022-11-20T19:23:37;5.25;92.57
72114;SHT31;59989;46.220;19.888;2022-11-20T19:26:42;5.23;92.53
72114;SHT31;59989;46.220;19.888;2022-11-20T19:29:45;5.25;92.25
72114;SHT31;59989;46.220;19.888;2022-11-20T19:32:50;5.20;92.11
72114;SHT31;59989;46.220;19.888;2022-11-20T19:35:54;5.21;92.33
72114;SHT31;59989;46.220;19.888;2022-11-20T19:38:58;5.23;92.21
72114;SHT31;59989;46.220;19.888;2022-11-20T19:42:03;5.18;92.30
72114;SHT31;59989;46.220;19.888;2022-11-20T19:45:06;5.20;92.28
72114;SHT31;59989;46.220;19.888;2022-11-20T19:48:13;5.20;92.35
72114;SHT31;59989;46.220;19.888;2022-11-20T19:51:19;5.21;92.32
72114;SHT31;59989;46.220;19.888;2022-11-20T19:54:23;5.18;92.34
72114;SHT31;59989;46.220;19.888;2022-11-20T19:57:27;5.17;92.34
72114;SHT31;59989;46.220;19.888;2022-11-20T20:00:32;5.17;92.46
72114;SHT31;59989;46.220;19.888;2022-11-20T20:03:36;5.20;92.46
72114;SHT31;59989;46.220;19.888;2022-11-20T20:06:42;5.15;92.66
72114;SHT31;59989;46.220;19.888;2022-11-20T20:09:46;5.15;92.66
72114;SHT31;59989;46.220;19.888;2022-11-20T20:12:51;5.14;92.71
72114;SHT31;59989;46.220;19.888;2022-11-20T20:15:56;5.15;92.75
72114;SHT31;59989;46.220;19.888;2022-11-20T20:19:03;5.14;92.69
72114;SHT31;59989;46.220;19.888;2022-11-20T20:22:06;5.11;92.87
72114;SHT31;59989;46.220;19.888;2022-11-20T20:25:09;5.11;93.08
72114;SHT31;59989;46.220;19.888;2022-11-20T20:28:15;5.08;92.94
72114;SHT31;59989;46.220;19.888;2022-11-20T20:31:23;5.08;93.02
72114;SHT31;59989;46.220;19.888;2022-11-20T20:34:27;5.10;92.90
72114;SHT31;59989;46.220;19.888;2022-11-20T20:37:31;5.11;93.04
72114;SHT31;59989;46.220;19.888;2022-11-20T20:40:33;5.13;92.77
72114;SHT31;59989;46.220;19.888;2022-11-20T20:43:39;5.15;92.88
72114;SHT31;59989;46.220;19.888;2022-11-20T20:47:01;5.15;92.73
72114;SHT31;59989;46.220;19.888;2022-11-20T20:50:10;5.17;92.81
72114;SHT31;59989;46.220;19.888;2022-11-20T20:53:18;5.17;92.72
72114;SHT31;59989;46.220;19.888;2022-11-20T20:56:21;5.14;92.83
72114;SHT31;59989;46.220;19.888;2022-11-20T20:59:24;5.13;92.94
72114;SHT31;59989;46.220;19.888;2022-11-20T21:02:27;5.15;92.68
72114;SHT31;59989;46.220;19.888;2022-11-20T21:05:33;5.18;92.41
72114;SHT31;59989;46.220;19.888;2022-11-20T21:08:39;5.15;92.60
72114;SHT31;59989;46.220;19.888;2022-11-20T21:11:47;5.14;92.52
72114;SHT31;59989;46.220;19.888;2022-11-20T21:14:52;5.14;92.49
72114;SHT31;59989;46.220;19.888;2022-11-20T21:17:57;5.13;92.64
72114;SHT31;59989;46.220;19.888;2022-11-20T21:21:03;5.08;92.50
72114;SHT31;59989;46.220;19.888;2022-11-20T21:24:32;5.07;92.70
72114;SHT31;59989;46.220;19.888;2022-11-20T21:27:35;5.08;92.56